createdAt,value
2023-01-23T00:01:05.197Z,14.97
2023-01-23T00:03:32.334Z,13.60
2023-01-23T00:06:06.883Z,13.10
2023-01-23T00:08:34.786Z,16.83
2023-01-23T00:11:08.755Z,14.97
2023-01-23T00:13:36.297Z,13.43
2023-01-23T00:16:18.268Z,12.10
2023-01-23T00:18:45.730Z,11.60
2023-01-23T00:21:15.861Z,14.63
2023-01-23T00:23:54.229Z,14.60
2023-01-23T00:26:27.803Z,14.40
2023-01-23T00:28:55.189Z,14.33
2023-01-23T00:31:28.381Z,12.13
2023-01-23T00:34:01.399Z,12.90
2023-01-23T00:36:38.939Z,15.50
2023-01-23T00:39:21.058Z,14.37
2023-01-23T00:41:49.465Z,13.83
2023-01-23T00:44:16.887Z,13.70
2023-01-23T00:46:43.895Z,12.30
2023-01-23T00:49:10.871Z,14.40
2023-01-23T00:51:37.722Z,14.67
2023-01-23T00:54:04.793Z,11.73
2023-01-23T00:56:31.749Z,12.67
2023-01-23T00:58:58.700Z,15.10
2023-01-23T01:01:26.227Z,12.33
2023-01-23T01:03:53.512Z,14.40
2023-01-23T01:06:20.479Z,11.97
2023-01-23T01:08:47.955Z,12.17
2023-01-23T01:11:15.032Z,13.40
2023-01-23T01:13:42.976Z,12.93
2023-01-23T01:16:10.624Z,14.80
2023-01-23T01:18:38.489Z,16.27
2023-01-23T01:21:15.212Z,14.73
2023-01-23T01:23:42.175Z,13.23
2023-01-23T01:26:09.798Z,14.70
2023-01-23T01:28:39.555Z,15.30
2023-01-23T01:31:09.282Z,11.17
2023-01-23T01:33:38.632Z,13.10
2023-01-23T01:36:16.815Z,13.37
2023-01-23T01:38:44.081Z,14.00
2023-01-23T01:41:12.471Z,13.47
2023-01-23T01:43:40.436Z,14.40
2023-01-23T01:46:12.715Z,11.70
2023-01-23T01:49:00.821Z,13.33
2023-01-23T01:51:56.142Z,14.20
2023-01-23T01:54:33.796Z,15.33
2023-01-23T01:57:34.658Z,11.43
2023-01-23T02:00:15.752Z,12.80
2023-01-23T02:02:46.099Z,12.90
2023-01-23T02:05:20.004Z,12.27
2023-01-23T02:08:28.565Z,12.87
2023-01-23T02:10:55.967Z,15.60
2023-01-23T02:13:22.964Z,10.10
2023-01-23T02:15:50.388Z,12.50
2023-01-23T02:18:17.819Z,12.40
2023-01-23T02:20:45.096Z,14.10
2023-01-23T02:23:39.358Z,12.60
2023-01-23T02:26:36.782Z,13.70
2023-01-23T02:29:05.650Z,11.57
2023-01-23T02:31:33.246Z,13.43
2023-01-23T02:34:00.841Z,11.57
2023-01-23T02:36:33.659Z,12.53
2023-01-23T02:39:09.180Z,10.63
2023-01-23T02:41:42.147Z,13.67
2023-01-23T02:44:27.783Z,9.77
2023-01-23T02:46:56.531Z,10.60
2023-01-23T02:49:23.822Z,11.00
2023-01-23T02:51:52.227Z,10.53
2023-01-23T02:54:19.129Z,11.53
2023-01-23T02:56:46.511Z,9.37
2023-01-23T02:59:31.721Z,11.13
2023-01-23T03:01:58.902Z,9.97
2023-01-23T03:04:25.874Z,10.80
2023-01-23T03:06:53.197Z,9.00
2023-01-23T03:09:20.083Z,10.07
2023-01-23T03:11:47.036Z,7.80
2023-01-23T03:14:17.681Z,9.70
2023-01-23T03:16:50.056Z,6.63
2023-01-23T03:19:17.818Z,8.53
2023-01-23T03:21:44.783Z,7.03
2023-01-23T03:24:14.005Z,7.13
2023-01-23T03:26:42.361Z,7.83
2023-01-23T03:29:34.033Z,7.40
2023-01-23T03:32:01.599Z,6.57
2023-01-23T03:34:29.937Z,6.13
2023-01-23T03:36:56.996Z,8.30
2023-01-23T03:39:42.680Z,6.43
2023-01-23T03:42:09.630Z,7.33
2023-01-23T03:44:36.589Z,9.37
2023-01-23T03:47:04.041Z,8.47
2023-01-23T03:49:31.046Z,7.50
2023-01-23T03:51:57.993Z,12.37
2023-01-23T03:54:24.954Z,6.27
2023-01-23T03:56:51.860Z,5.60
2023-01-23T03:59:19.068Z,6.53
2023-01-23T04:01:47.861Z,5.67
2023-01-23T04:04:15.187Z,5.43
2023-01-23T04:06:42.052Z,6.37
2023-01-23T04:09:09.223Z,5.33
2023-01-23T04:11:36.126Z,5.87
2023-01-23T04:14:02.988Z,6.33
2023-01-23T04:16:29.941Z,6.27
2023-01-23T04:18:56.952Z,6.30
2023-01-23T04:21:24.219Z,5.50
2023-01-23T04:23:51.169Z,5.30
2023-01-23T04:26:18.025Z,6.17
2023-01-23T04:28:44.864Z,6.37
2023-01-23T04:31:12.084Z,5.90
2023-01-23T04:33:39.053Z,5.40
2023-01-23T04:36:07.032Z,4.87
2023-01-23T04:38:34.498Z,5.73
2023-01-23T04:41:01.425Z,6.43
2023-01-23T04:43:28.385Z,6.17
2023-01-23T04:45:56.384Z,6.70
2023-01-23T04:48:25.002Z,7.07
2023-01-23T04:50:52.012Z,7.03
2023-01-23T04:53:19.090Z,5.93
2023-01-23T04:55:49.601Z,6.30
2023-01-23T04:58:18.128Z,5.87
2023-01-23T05:00:45.462Z,6.77
2023-01-23T05:03:12.570Z,6.50
2023-01-23T05:05:39.513Z,5.87
2023-01-23T05:08:06.532Z,7.00
2023-01-23T05:10:33.452Z,6.20
2023-01-23T05:13:00.335Z,6.17
2023-01-23T05:15:28.559Z,6.07
2023-01-23T05:17:56.937Z,5.63
2023-01-23T05:20:23.951Z,6.20
2023-01-23T05:22:53.957Z,6.90
2023-01-23T05:25:26.516Z,5.93
2023-01-23T05:27:53.654Z,7.20
2023-01-23T05:30:22.797Z,7.23
2023-01-23T05:32:49.884Z,7.83
2023-01-23T05:35:16.985Z,9.00
2023-01-23T05:37:43.963Z,6.27
2023-01-23T05:40:13.420Z,6.50
2023-01-23T05:42:40.383Z,6.30
2023-01-23T05:45:07.560Z,6.33
2023-01-23T05:47:34.828Z,6.97
2023-01-23T05:50:01.758Z,8.13
2023-01-23T05:52:28.719Z,6.67
2023-01-23T05:54:55.719Z,7.77
2023-01-23T05:57:23.052Z,6.40
2023-01-23T05:59:49.923Z,7.27
2023-01-23T06:02:17.329Z,8.50
2023-01-23T06:04:46.522Z,7.90
2023-01-23T06:07:14.795Z,7.27
2023-01-23T06:09:42.206Z,8.00
2023-01-23T06:12:10.448Z,9.27
2023-01-23T06:14:37.349Z,8.10
2023-01-23T06:17:05.271Z,11.50
2023-01-23T06:19:32.211Z,9.27
2023-01-23T06:21:59.182Z,11.93
2023-01-23T06:24:26.058Z,11.70
2023-01-23T06:26:52.961Z,11.00
2023-01-23T06:29:19.790Z,9.97
2023-01-23T06:31:47.698Z,8.80
2023-01-23T06:34:15.853Z,8.27
2023-01-23T06:36:42.807Z,12.13
2023-01-23T06:39:13.798Z,7.73
2023-01-23T06:41:40.822Z,8.47
2023-01-23T06:44:07.945Z,8.00
2023-01-23T06:46:35.109Z,11.33
2023-01-23T06:49:04.546Z,10.43
2023-01-23T06:51:33.656Z,10.87
2023-01-23T06:54:00.873Z,10.03
2023-01-23T06:56:27.907Z,8.43
2023-01-23T06:58:54.796Z,8.17
2023-01-23T07:01:21.796Z,9.07
2023-01-23T07:03:48.796Z,9.30
2023-01-23T07:06:16.595Z,9.80
2023-01-23T07:08:43.724Z,10.57
2023-01-23T07:11:11.117Z,10.50
2023-01-23T07:13:38.141Z,10.73
2023-01-23T07:16:05.765Z,13.43
2023-01-23T07:18:33.304Z,10.17
2023-01-23T07:21:01.035Z,10.37
2023-01-23T07:23:27.983Z,10.97
2023-01-23T07:26:09.555Z,11.47
2023-01-23T07:28:37.656Z,12.30
2023-01-23T07:31:05.494Z,10.27
2023-01-23T07:33:32.745Z,12.70
2023-01-23T07:35:59.854Z,11.20
2023-01-23T07:38:26.976Z,10.87
2023-01-23T07:40:58.841Z,12.20
2023-01-23T07:43:26.437Z,8.73
2023-01-23T07:45:53.835Z,12.20
2023-01-23T07:48:20.684Z,11.80
2023-01-23T07:50:47.570Z,9.93
2023-01-23T07:53:14.405Z,11.30
2023-01-23T07:55:41.662Z,10.80
2023-01-23T07:58:08.521Z,11.80
2023-01-23T08:00:35.608Z,10.83
2023-01-23T08:03:02.532Z,10.67
2023-01-23T08:05:29.524Z,10.33
2023-01-23T08:08:12.149Z,9.00
2023-01-23T08:10:39.907Z,12.37
2023-01-23T08:13:06.794Z,12.43
2023-01-23T08:15:33.728Z,12.73
2023-01-23T08:18:00.593Z,11.20
2023-01-23T08:20:27.529Z,10.60
2023-01-23T08:22:54.435Z,11.53
2023-01-23T08:25:22.389Z,14.27
2023-01-23T08:27:49.258Z,11.20
2023-01-23T08:30:16.544Z,12.70
2023-01-23T08:32:43.397Z,10.63
2023-01-23T08:35:10.295Z,10.90
2023-01-23T08:37:37.966Z,11.90
2023-01-23T08:40:05.539Z,12.13
2023-01-23T08:42:32.498Z,11.63
2023-01-23T08:44:59.381Z,11.90
2023-01-23T08:47:26.271Z,12.50
2023-01-23T08:49:53.149Z,12.87
2023-01-23T08:52:20.072Z,12.53
2023-01-23T08:54:46.923Z,13.43
2023-01-23T08:57:13.825Z,12.93
2023-01-23T08:59:42.618Z,13.73
2023-01-23T09:02:14.334Z,11.70
2023-01-23T09:04:41.331Z,11.17
2023-01-23T09:07:08.213Z,11.70
2023-01-23T09:09:35.165Z,12.77
2023-01-23T09:12:02.066Z,11.90
2023-01-23T09:14:28.961Z,11.87
2023-01-23T09:16:55.881Z,11.30
2023-01-23T09:19:22.882Z,16.73
2023-01-23T09:21:49.752Z,10.00
2023-01-23T09:24:17.098Z,12.57
2023-01-23T09:26:43.956Z,11.03
2023-01-23T09:29:10.845Z,10.50
2023-01-23T09:31:38.315Z,10.87
2023-01-23T09:34:05.530Z,10.20
2023-01-23T09:36:42.511Z,10.97
2023-01-23T09:39:16.026Z,9.90
2023-01-23T09:41:45.486Z,9.83
2023-01-23T09:44:22.824Z,10.13
2023-01-23T09:47:04.885Z,13.13
2023-01-23T09:49:41.801Z,10.57
2023-01-23T09:52:21.513Z,9.57
2023-01-23T09:55:00.067Z,10.63
2023-01-23T09:57:53.008Z,12.20
2023-01-23T10:00:27.720Z,9.90
2023-01-23T10:02:55.324Z,9.50
2023-01-23T10:05:33.016Z,10.23
2023-01-23T10:08:33.145Z,9.13
2023-01-23T10:11:15.928Z,9.57
2023-01-23T10:14:17.351Z,8.67
2023-01-23T10:17:05.423Z,8.17
2023-01-23T10:20:05.793Z,11.57
2023-01-23T10:23:01.325Z,9.70
2023-01-23T10:25:33.176Z,11.77
2023-01-23T10:28:16.432Z,10.10
2023-01-23T10:30:50.109Z,9.47
2023-01-23T10:33:18.802Z,14.90
2023-01-23T10:35:50.881Z,9.90
2023-01-23T10:38:17.771Z,9.77
2023-01-23T10:41:05.753Z,10.20
2023-01-23T10:43:32.600Z,11.90
2023-01-23T10:45:59.530Z,11.60
2023-01-23T10:48:32.521Z,12.20
2023-01-23T10:51:00.284Z,10.97
2023-01-23T10:53:27.661Z,11.80
2023-01-23T10:55:59.069Z,11.13
2023-01-23T10:58:36.812Z,10.80
2023-01-23T11:01:04.862Z,8.87
2023-01-23T11:03:34.694Z,9.93
2023-01-23T11:06:06.174Z,11.73
2023-01-23T11:08:38.940Z,9.70
2023-01-23T11:11:20.312Z,9.83
2023-01-23T11:13:49.915Z,10.57
2023-01-23T11:16:22.159Z,11.73
2023-01-23T11:19:07.875Z,11.20
2023-01-23T11:21:37.540Z,13.43
2023-01-23T11:24:40.432Z,12.77
2023-01-23T11:27:16.534Z,11.47
2023-01-23T11:30:06.431Z,11.40
2023-01-23T11:32:42.836Z,11.87
2023-01-23T11:35:18.245Z,14.07
2023-01-23T11:37:45.219Z,13.83
2023-01-23T11:40:17.348Z,11.10
2023-01-23T11:42:45.051Z,11.23
2023-01-23T11:45:26.104Z,16.23
2023-01-23T11:48:02.197Z,10.67
2023-01-23T11:50:54.007Z,11.50
2023-01-23T11:53:41.836Z,12.10
2023-01-23T11:56:30.648Z,13.27
2023-01-23T11:59:09.701Z,14.17
2023-01-23T12:02:03.818Z,12.47
2023-01-23T12:04:55.881Z,11.13
2023-01-23T12:07:26.440Z,12.33
2023-01-23T12:10:16.355Z,9.60
2023-01-23T12:12:50.721Z,11.17
2023-01-23T12:15:46.925Z,7.60
2023-01-23T12:18:28.752Z,8.97
2023-01-23T12:21:12.778Z,11.17
2023-01-23T12:24:01.901Z,12.70
2023-01-23T12:26:31.284Z,9.37
2023-01-23T12:29:07.223Z,9.53
2023-01-23T12:31:51.625Z,11.73
2023-01-23T12:34:50.785Z,9.57
2023-01-23T12:38:03.224Z,9.50
2023-01-23T12:41:13.468Z,10.07
2023-01-23T12:43:57.374Z,8.43
2023-01-23T12:46:40.880Z,8.97
2023-01-23T12:49:28.367Z,10.50
2023-01-23T12:52:05.203Z,8.33
2023-01-23T12:54:42.812Z,9.23
2023-01-23T12:57:11.027Z,8.70
2023-01-23T12:59:43.946Z,10.13
2023-01-23T13:02:24.121Z,9.13
2023-01-23T13:05:13.964Z,9.80
2023-01-23T13:08:10.276Z,8.20
2023-01-23T13:11:23.303Z,8.90
2023-01-23T13:13:50.180Z,8.10
2023-01-23T13:16:19.896Z,9.70
2023-01-23T13:19:19.163Z,9.00
2023-01-23T13:22:28.625Z,8.73
2023-01-23T13:25:19.552Z,10.90
2023-01-23T13:27:59.705Z,9.37
2023-01-23T13:30:26.757Z,8.77
2023-01-23T13:33:21.361Z,11.70
2023-01-23T13:35:52.951Z,11.50
2023-01-23T13:38:22.687Z,11.57
2023-01-23T13:41:04.667Z,10.50
2023-01-23T13:43:55.941Z,8.20
2023-01-23T13:46:41.295Z,8.87
2023-01-23T14:21:52.498Z,7.47
2023-01-23T14:24:25.089Z,8.87
2023-01-23T14:27:02.444Z,8.23
2023-01-23T14:29:31.584Z,7.93
2023-01-23T14:31:58.532Z,7.63
2023-01-23T14:34:26.590Z,7.37
2023-01-23T14:37:04.233Z,6.37
2023-01-23T14:39:33.518Z,7.03
2023-01-23T14:42:02.637Z,7.77
2023-01-23T14:44:42.965Z,6.73
2023-01-23T14:47:18.607Z,7.07
2023-01-23T14:49:48.139Z,6.03
2023-01-23T14:52:34.060Z,5.50
2023-01-23T14:55:07.333Z,6.03
2023-01-23T14:57:36.153Z,4.87
2023-01-23T15:00:03.760Z,6.33
2023-01-23T15:02:33.883Z,5.90
2023-01-23T15:05:13.075Z,6.87
2023-01-23T15:08:06.581Z,7.47
2023-01-23T15:10:48.994Z,6.80
2023-01-23T15:13:32.460Z,7.80
2023-01-23T15:16:03.666Z,7.87
2023-01-23T15:18:35.928Z,7.77
2023-01-23T15:21:05.862Z,7.70
2023-01-23T15:23:34.208Z,9.70
2023-01-23T15:26:26.335Z,6.67
2023-01-23T15:29:00.354Z,7.80
2023-01-23T15:31:39.417Z,6.70
2023-01-23T15:34:15.712Z,7.10
2023-01-23T15:36:57.485Z,6.73
2023-01-23T15:39:38.879Z,7.33
2023-01-23T15:42:14.585Z,7.00
2023-01-23T15:44:42.929Z,6.30
2023-01-23T15:47:10.166Z,6.60
2023-01-23T15:49:39.964Z,6.43
2023-01-23T15:52:28.588Z,7.83
2023-01-23T15:55:01.680Z,7.97
2023-01-23T15:57:28.664Z,6.70
2023-01-23T15:59:55.513Z,7.07
2023-01-23T16:02:33.208Z,8.47
2023-01-23T16:05:02.038Z,9.00
2023-01-23T16:07:40.816Z,7.83
2023-01-23T16:10:29.344Z,8.10
2023-01-23T16:12:57.872Z,10.90
2023-01-23T16:15:25.852Z,7.80
2023-01-23T16:17:53.193Z,8.13
2023-01-23T16:20:31.966Z,8.40
2023-01-23T16:23:11.763Z,7.83
2023-01-23T16:25:46.151Z,6.97
2023-01-23T16:28:15.520Z,9.17
2023-01-23T16:30:42.565Z,8.43
2023-01-23T16:33:09.533Z,10.50
2023-01-23T16:35:36.752Z,12.13
2023-01-23T16:38:03.857Z,14.33
2023-01-23T16:40:30.917Z,10.47
2023-01-23T16:42:59.881Z,9.93
2023-01-23T16:45:29.180Z,9.20
2023-01-23T16:47:56.756Z,9.57
2023-01-23T16:50:32.425Z,8.57
2023-01-23T16:53:26.179Z,8.93
2023-01-23T16:55:56.043Z,10.43
2023-01-23T16:58:29.424Z,14.13
2023-01-23T17:01:03.796Z,9.70
2023-01-23T17:03:35.607Z,9.30
2023-01-23T17:06:02.686Z,9.47
2023-01-23T17:08:29.866Z,11.03
2023-01-23T17:11:00.421Z,11.13
2023-01-23T17:13:31.019Z,12.03
2023-01-23T17:15:59.137Z,9.87
2023-01-23T17:18:29.520Z,10.70
2023-01-23T17:20:57.149Z,10.00
2023-01-23T17:23:25.373Z,10.30
2023-01-23T17:26:00.411Z,13.43
2023-01-23T17:28:28.818Z,10.50
2023-01-23T17:30:58.227Z,13.43
2023-01-23T17:33:28.713Z,11.47
2023-01-23T17:35:56.217Z,12.70
2023-01-23T17:38:31.064Z,13.00
2023-01-23T17:40:58.058Z,10.33
2023-01-23T17:43:24.952Z,10.00
2023-01-23T17:45:52.644Z,12.30
2023-01-23T17:48:26.911Z,10.97
2023-01-23T17:50:54.022Z,10.50
2023-01-23T17:53:20.909Z,11.30
2023-01-23T17:55:51.566Z,13.63
2023-01-23T17:58:19.683Z,11.17
2023-01-23T18:00:50.886Z,17.50
2023-01-23T18:03:22.190Z,15.60
2023-01-23T18:05:49.291Z,12.57
2023-01-23T18:08:18.424Z,12.03
2023-01-23T18:10:48.233Z,12.07
2023-01-23T18:13:34.274Z,18.40
2023-01-23T18:16:23.531Z,13.53
2023-01-23T18:19:05.726Z,13.50
2023-01-23T18:21:32.816Z,9.87
2023-01-23T18:23:59.909Z,10.77
2023-01-23T18:26:52.035Z,10.33
2023-01-23T18:29:24.959Z,10.43
2023-01-23T18:31:59.617Z,15.30
2023-01-23T18:34:37.228Z,12.07
2023-01-23T18:37:22.933Z,16.17
2023-01-23T18:40:11.121Z,13.00
2023-01-23T18:42:44.002Z,10.93
2023-01-23T18:45:23.738Z,16.60
2023-01-23T18:47:54.643Z,11.80
2023-01-23T18:50:27.006Z,15.03
2023-01-23T18:53:40.807Z,14.40
2023-01-23T18:56:16.204Z,12.23
2023-01-23T18:58:43.043Z,13.83
2023-01-23T19:01:35.156Z,11.93
2023-01-23T19:04:02.226Z,12.03
2023-01-23T19:06:33.319Z,14.40
2023-01-23T19:09:01.063Z,13.03
2023-01-23T19:11:49.245Z,11.27
2023-01-23T19:14:42.721Z,12.53
2023-01-23T19:17:37.495Z,10.77
2023-01-23T19:20:33.018Z,10.30
2023-01-23T19:23:10.914Z,11.87
2023-01-23T19:25:37.948Z,12.40
2023-01-23T19:28:05.533Z,12.23
2023-01-23T19:30:32.614Z,12.93
2023-01-23T19:32:59.458Z,11.27
2023-01-23T19:35:26.315Z,12.60
2023-01-23T19:37:53.177Z,12.50
2023-01-23T19:40:20.055Z,10.17
2023-01-23T19:42:58.706Z,12.40
2023-01-23T19:45:33.898Z,12.53
2023-01-23T19:48:00.820Z,10.87
2023-01-23T19:50:27.661Z,12.30
2023-01-23T19:52:57.221Z,9.27
2023-01-23T19:55:30.293Z,12.23
2023-01-23T19:57:57.646Z,11.73
2023-01-23T20:00:27.004Z,11.37
2023-01-23T20:02:54.420Z,11.50
2023-01-23T20:05:23.022Z,10.07
2023-01-23T20:07:50.125Z,11.27
2023-01-23T20:10:17.457Z,9.33
2023-01-23T20:12:52.262Z,11.60
2023-01-23T20:15:22.571Z,9.50
2023-01-23T20:17:50.138Z,12.10
2023-01-23T20:20:17.388Z,12.53
2023-01-23T20:22:44.580Z,12.30
2023-01-23T20:25:14.423Z,10.83
2023-01-23T20:27:42.163Z,11.87
2023-01-23T20:30:17.928Z,11.70
2023-01-23T20:32:45.092Z,10.97
2023-01-23T20:35:12.199Z,12.27
2023-01-23T20:37:39.093Z,10.33
2023-01-23T20:40:28.156Z,10.53
2023-01-23T20:42:55.445Z,9.43
2023-01-23T20:45:22.603Z,10.80
2023-01-23T20:47:54.413Z,14.80
2023-01-23T20:50:58.335Z,10.67
2023-01-23T20:53:31.094Z,11.83
2023-01-23T20:56:03.924Z,11.23
2023-01-23T20:58:50.197Z,10.00
2023-01-23T21:01:18.532Z,11.40
2023-01-23T21:03:48.266Z,12.20
2023-01-23T21:06:15.706Z,13.73
2023-01-23T21:08:43.194Z,10.53
2023-01-23T21:11:15.716Z,11.60
2023-01-23T21:13:43.087Z,13.07
2023-01-23T21:16:15.672Z,9.90
2023-01-23T21:18:46.264Z,11.73
2023-01-23T21:21:18.353Z,12.07
2023-01-23T21:23:48.936Z,13.07
2023-01-23T21:26:18.353Z,11.27
2023-01-23T21:28:47.388Z,10.83
2023-01-23T21:31:17.781Z,11.30
2023-01-23T21:33:46.490Z,12.97
2023-01-23T21:36:15.373Z,11.80
2023-01-23T21:38:42.394Z,12.03
2023-01-23T21:41:09.608Z,10.97
2023-01-23T21:43:36.573Z,12.23
2023-01-23T21:46:03.942Z,11.60
2023-01-23T21:48:32.341Z,13.10
2023-01-23T21:51:14.124Z,14.50
2023-01-23T21:53:42.531Z,10.80
2023-01-23T21:56:10.764Z,13.37
2023-01-23T21:58:38.721Z,13.30
2023-01-23T22:01:32.980Z,11.33
2023-01-23T22:04:09.340Z,11.73
2023-01-23T22:06:37.528Z,11.57
2023-01-23T22:09:05.229Z,11.13
2023-01-23T22:11:32.587Z,10.40
2023-01-23T22:13:59.516Z,10.37
2023-01-23T22:16:46.486Z,8.90
2023-01-23T22:19:18.479Z,12.60
2023-01-23T22:21:46.725Z,13.37
2023-01-23T22:24:14.766Z,10.83
2023-01-23T22:26:41.740Z,11.80
2023-01-23T22:29:08.880Z,12.00
2023-01-23T22:31:36.270Z,9.53
2023-01-23T22:34:03.286Z,12.30
2023-01-23T22:36:30.190Z,10.83
2023-01-23T22:38:57.146Z,11.50
2023-01-23T22:41:24.553Z,10.87
2023-01-23T22:43:56.007Z,9.77
2023-01-23T22:46:23.552Z,11.80
2023-01-23T22:48:50.902Z,10.90
2023-01-23T22:51:23.180Z,11.80
2023-01-23T22:53:52.292Z,10.90
2023-01-23T22:56:19.177Z,11.93
2023-01-23T22:58:47.857Z,11.10
2023-01-23T23:01:15.727Z,11.80
2023-01-23T23:03:43.045Z,12.03
2023-01-23T23:06:12.897Z,10.23
2023-01-23T23:08:40.619Z,11.47
2023-01-23T23:11:28.415Z,12.40
2023-01-23T23:13:56.764Z,11.50
2023-01-23T23:16:26.275Z,12.27
2023-01-23T23:18:55.167Z,12.90
2023-01-23T23:21:25.251Z,12.53
2023-01-23T23:23:55.009Z,9.90
2023-01-23T23:26:21.930Z,9.37
2023-01-23T23:28:48.806Z,10.40
2023-01-23T23:31:15.922Z,9.70
2023-01-23T23:33:42.874Z,10.27
2023-01-23T23:36:10.004Z,10.30
2023-01-23T23:38:37.058Z,9.13
2023-01-23T23:41:06.451Z,9.27
2023-01-23T23:43:33.869Z,9.87
2023-01-23T23:46:03.091Z,9.43
2023-01-23T23:48:31.807Z,10.27
2023-01-23T23:51:07.223Z,9.30
2023-01-23T23:53:35.473Z,8.60
2023-01-23T23:56:02.962Z,9.20
2023-01-23T23:58:30.365Z,7.27
